createdAt,value
2022-10-15T00:01:27.486Z,23.06
2022-10-15T00:03:27.410Z,23.03
2022-10-15T00:05:27.470Z,23.08
2022-10-15T00:07:27.428Z,22.95
2022-10-15T00:09:27.338Z,22.92
2022-10-15T00:11:27.419Z,23.02
2022-10-15T00:13:27.447Z,22.90
2022-10-15T00:15:27.482Z,22.99
2022-10-15T00:17:27.417Z,22.71
2022-10-15T00:19:27.404Z,22.96
2022-10-15T00:21:27.482Z,22.91
2022-10-15T00:23:27.490Z,23.05
2022-10-15T00:25:27.490Z,22.96
2022-10-15T00:27:27.518Z,23.26
2022-10-15T00:29:27.466Z,23.22
2022-10-15T00:31:27.446Z,23.16
2022-10-15T00:33:27.496Z,22.95
2022-10-15T00:35:27.369Z,22.83
2022-10-15T00:37:27.508Z,22.92
2022-10-15T00:39:27.506Z,22.92
2022-10-15T00:41:27.437Z,22.92
2022-10-15T00:43:27.518Z,22.95
2022-10-15T00:45:27.445Z,23.16
2022-10-15T00:47:27.359Z,22.96
2022-10-15T00:49:27.471Z,22.87
2022-10-15T00:51:27.504Z,22.92
2022-10-15T00:53:27.500Z,22.95
2022-10-15T00:55:27.432Z,23.26
2022-10-15T00:57:27.489Z,23.12
2022-10-15T00:59:27.494Z,22.90
2022-10-15T01:01:27.586Z,22.82
2022-10-15T01:03:27.442Z,22.95
2022-10-15T01:05:27.530Z,22.82
2022-10-15T01:07:27.452Z,22.81
2022-10-15T01:09:27.554Z,22.98
2022-10-15T01:11:27.525Z,22.82
2022-10-15T01:13:27.563Z,22.87
2022-10-15T01:15:27.496Z,22.82
2022-10-15T01:17:27.530Z,22.92
2022-10-15T01:19:27.487Z,22.79
2022-10-15T01:21:27.379Z,22.91
2022-10-15T01:23:27.509Z,22.95
2022-10-15T01:25:27.480Z,22.84
2022-10-15T01:27:27.536Z,22.80
2022-10-15T01:29:27.623Z,22.86
2022-10-15T01:31:27.445Z,22.95
2022-10-15T01:33:27.566Z,22.82
2022-10-15T01:35:27.574Z,23.07
2022-10-15T01:37:27.562Z,23.05
2022-10-15T01:39:27.653Z,22.78
2022-10-15T01:41:27.452Z,22.85
2022-10-15T01:43:27.579Z,22.90
2022-10-15T01:45:27.396Z,23.01
2022-10-15T01:47:27.655Z,23.06
2022-10-15T01:49:27.573Z,22.79
2022-10-15T01:51:27.475Z,22.95
2022-10-15T01:53:27.593Z,22.83
2022-10-15T01:55:27.571Z,22.82
2022-10-15T01:57:27.486Z,22.91
2022-10-15T01:59:27.522Z,22.82
2022-10-15T02:01:27.554Z,22.91
2022-10-15T02:03:27.583Z,22.97
2022-10-15T02:05:27.501Z,22.91
2022-10-15T02:07:27.608Z,22.78
2022-10-15T02:09:27.517Z,22.85
2022-10-15T02:11:27.635Z,22.86
2022-10-15T02:13:27.540Z,22.87
2022-10-15T02:15:27.483Z,23.10
2022-10-15T02:17:27.635Z,22.81
2022-10-15T02:19:27.459Z,22.76
2022-10-15T02:21:27.651Z,22.72
2022-10-15T02:23:27.581Z,22.85
2022-10-15T02:25:27.610Z,22.85
2022-10-15T02:27:27.609Z,22.76
2022-10-15T02:29:27.541Z,22.69
2022-10-15T02:31:27.632Z,22.80
2022-10-15T02:33:27.537Z,22.82
2022-10-15T02:35:27.564Z,22.82
2022-10-15T02:37:27.577Z,22.87
2022-10-15T02:39:27.530Z,22.72
2022-10-15T02:41:27.508Z,22.75
2022-10-15T02:43:27.556Z,22.75
2022-10-15T02:45:27.609Z,22.68
2022-10-15T02:47:27.635Z,22.59
2022-10-15T02:49:27.526Z,22.68
2022-10-15T02:51:27.650Z,22.65
2022-10-15T02:53:27.589Z,22.71
2022-10-15T02:55:27.611Z,22.76
2022-10-15T02:57:27.617Z,22.68
2022-10-15T02:59:27.524Z,22.76
2022-10-15T03:01:27.737Z,22.76
2022-10-15T03:03:27.668Z,22.83
2022-10-15T03:07:27.558Z,22.67
2022-10-15T03:09:27.660Z,22.72
2022-10-15T03:11:27.526Z,22.74
2022-10-15T03:13:27.532Z,22.78
2022-10-15T03:15:27.514Z,22.82
2022-10-15T03:17:27.645Z,22.87
2022-10-15T03:19:27.577Z,22.70
2022-10-15T03:21:27.732Z,22.64
2022-10-15T03:23:27.680Z,22.68
2022-10-15T03:25:27.589Z,22.83
2022-10-15T03:27:27.729Z,22.71
2022-10-15T03:29:27.673Z,22.74
2022-10-15T03:31:27.683Z,22.78
2022-10-15T03:33:27.608Z,22.69
2022-10-15T03:35:27.634Z,22.68
2022-10-15T03:37:27.606Z,22.67
2022-10-15T03:39:27.696Z,22.56
2022-10-15T03:41:27.606Z,22.56
2022-10-15T03:43:27.636Z,22.56
2022-10-15T03:45:27.733Z,22.68
2022-10-15T03:47:27.730Z,22.64
2022-10-15T03:49:27.702Z,22.68
2022-10-15T03:51:29.343Z,22.68
2022-10-15T03:53:27.720Z,22.62
2022-10-15T03:55:27.710Z,22.42
2022-10-15T03:57:27.703Z,22.73
2022-10-15T03:59:27.741Z,22.64
2022-10-15T04:01:27.774Z,22.52
2022-10-15T04:03:27.720Z,22.31
2022-10-15T04:05:27.619Z,22.58
2022-10-15T04:07:27.738Z,22.33
2022-10-15T04:09:27.703Z,22.35
2022-10-15T04:11:27.714Z,22.56
2022-10-15T04:13:27.838Z,22.43
2022-10-15T04:15:27.704Z,22.42
2022-10-15T04:17:27.706Z,22.33
2022-10-15T04:19:27.740Z,22.39
2022-10-15T04:21:27.768Z,22.46
2022-10-15T04:23:27.746Z,22.40
2022-10-15T04:25:27.754Z,22.45
2022-10-15T04:27:27.674Z,22.40
2022-10-15T04:29:27.704Z,22.40
2022-10-15T04:31:27.620Z,22.58
2022-10-15T04:33:27.740Z,22.60
2022-10-15T04:35:27.659Z,22.56
2022-10-15T04:37:27.759Z,22.77
2022-10-15T04:39:27.781Z,22.49
2022-10-15T04:41:27.716Z,22.79
2022-10-15T04:43:27.835Z,22.77
2022-10-15T04:45:27.784Z,22.68
2022-10-15T04:47:27.785Z,22.72
2022-10-15T04:49:27.799Z,22.85
2022-10-15T04:51:27.796Z,22.63
2022-10-15T04:53:27.650Z,22.60
2022-10-15T04:55:27.717Z,22.69
2022-10-15T04:57:27.670Z,22.76
2022-10-15T04:59:27.756Z,22.54
2022-10-15T05:01:27.788Z,22.60
2022-10-15T05:03:27.822Z,22.56
2022-10-15T05:05:27.826Z,22.42
2022-10-15T05:07:27.831Z,22.58
2022-10-15T05:09:27.710Z,22.72
2022-10-15T05:11:27.798Z,22.67
2022-10-15T05:13:27.773Z,22.65
2022-10-15T05:15:27.847Z,22.57
2022-10-15T05:17:27.820Z,22.56
2022-10-15T05:19:27.756Z,22.64
2022-10-15T05:21:27.818Z,22.60
2022-10-15T05:23:27.808Z,22.69
2022-10-15T05:25:27.818Z,22.73
2022-10-15T05:27:27.748Z,22.98
2022-10-15T05:29:27.852Z,22.56
2022-10-15T05:31:27.905Z,22.56
2022-10-15T05:33:27.802Z,22.47
2022-10-15T05:35:27.752Z,22.53
2022-10-15T05:37:27.826Z,22.82
2022-10-15T05:39:27.817Z,22.49
2022-10-15T05:41:27.861Z,22.68
2022-10-15T05:43:27.816Z,22.68
2022-10-15T05:45:27.738Z,22.64
2022-10-15T05:47:27.792Z,22.71
2022-10-15T05:49:27.734Z,22.83
2022-10-15T05:51:27.797Z,22.64
2022-10-15T05:53:27.841Z,22.62
2022-10-15T05:55:27.822Z,22.68
2022-10-15T05:57:27.834Z,22.67
2022-10-15T05:59:27.685Z,22.57
2022-10-15T06:01:27.822Z,22.55
2022-10-15T06:03:27.803Z,22.65
2022-10-15T06:05:27.860Z,22.49
2022-10-15T06:07:27.849Z,22.82
2022-10-15T06:09:27.885Z,22.72
2022-10-15T06:11:28.229Z,22.93
2022-10-15T06:13:27.787Z,22.49
2022-10-15T06:15:27.887Z,22.44
2022-10-15T06:17:27.861Z,22.67
2022-10-15T06:19:27.865Z,22.66
2022-10-15T06:21:27.721Z,22.67
2022-10-15T06:23:27.725Z,22.48
2022-10-15T06:25:27.884Z,22.65
2022-10-15T06:27:27.795Z,22.63
2022-10-15T06:29:27.922Z,22.60
2022-10-15T06:31:27.873Z,22.66
2022-10-15T06:33:27.871Z,22.63
2022-10-15T06:35:27.731Z,22.66
2022-10-15T06:37:27.918Z,22.71
2022-10-15T06:39:28.233Z,22.87
2022-10-15T06:41:28.951Z,22.95
2022-10-15T06:43:31.000Z,22.74
2022-10-15T06:45:27.888Z,22.74
2022-10-15T06:47:27.852Z,22.72
2022-10-15T06:49:27.848Z,22.77
2022-10-15T06:51:28.042Z,22.81
2022-10-15T06:53:27.878Z,23.02
2022-10-15T06:55:27.841Z,22.96
2022-10-15T06:57:27.893Z,22.63
2022-10-15T06:59:27.917Z,22.60
2022-10-15T07:01:27.831Z,22.98
2022-10-15T07:03:27.899Z,22.65
2022-10-15T07:05:27.836Z,22.54
2022-10-15T07:07:27.896Z,22.55
2022-10-15T07:09:27.919Z,22.64
2022-10-15T07:11:27.860Z,22.96
2022-10-15T07:13:27.812Z,22.99
2022-10-15T07:15:27.900Z,23.23
2022-10-15T07:17:27.935Z,22.96
2022-10-15T07:19:27.947Z,23.02
2022-10-15T07:21:27.896Z,22.98
2022-10-15T07:23:28.112Z,23.42
2022-10-15T07:25:27.895Z,23.23
2022-10-15T07:27:27.915Z,23.21
2022-10-15T07:29:27.892Z,23.19
2022-10-15T07:31:27.936Z,23.07
2022-10-15T07:33:27.960Z,23.41
2022-10-15T07:35:28.064Z,23.40
2022-10-15T07:37:28.138Z,23.50
2022-10-15T07:39:27.801Z,23.65
2022-10-15T07:41:28.354Z,23.60
2022-10-15T07:43:27.874Z,23.73
2022-10-15T07:45:27.793Z,23.77
2022-10-15T07:47:27.845Z,23.77
2022-10-15T07:49:28.042Z,23.84
2022-10-15T07:51:27.966Z,23.88
2022-10-15T07:53:27.975Z,23.92
2022-10-15T07:55:27.962Z,23.89
2022-10-15T07:57:27.955Z,23.91
2022-10-15T07:59:27.975Z,23.98
2022-10-15T08:01:27.989Z,24.04
2022-10-15T08:03:28.001Z,24.04
2022-10-15T08:05:27.942Z,24.11
2022-10-15T08:07:27.899Z,24.10
2022-10-15T08:09:27.979Z,24.07
2022-10-15T08:11:28.030Z,24.02
2022-10-15T08:13:28.003Z,23.98
2022-10-15T08:15:28.021Z,23.96
2022-10-15T08:17:28.035Z,24.01
2022-10-15T08:19:28.074Z,24.08
2022-10-15T08:21:28.042Z,24.18
2022-10-15T08:23:28.003Z,24.10
2022-10-15T08:25:27.945Z,24.12
2022-10-15T08:27:27.955Z,24.21
2022-10-15T08:29:28.784Z,24.21
2022-10-15T08:31:27.908Z,24.18
2022-10-15T08:33:27.994Z,24.14
2022-10-15T08:35:28.030Z,24.05
2022-10-15T08:37:28.034Z,24.10
2022-10-15T08:39:27.980Z,24.14
2022-10-15T08:41:28.022Z,24.27
2022-10-15T08:43:27.902Z,24.32
2022-10-15T08:45:28.029Z,24.06
2022-10-15T08:47:27.977Z,24.04
2022-10-15T08:49:27.940Z,24.27
2022-10-15T08:51:28.046Z,23.88
2022-10-15T08:53:27.987Z,24.12
2022-10-15T08:55:28.015Z,24.66
2022-10-15T08:57:27.952Z,23.80
2022-10-15T08:59:28.047Z,24.43
2022-10-15T09:01:28.040Z,24.12
2022-10-15T09:03:27.958Z,24.96
2022-10-15T09:05:27.930Z,24.86
2022-10-15T09:07:28.052Z,24.65
2022-10-15T09:09:28.029Z,24.94
2022-10-15T09:11:27.927Z,25.08
2022-10-15T09:13:28.173Z,25.05
2022-10-15T09:15:28.125Z,25.19
2022-10-15T09:17:28.125Z,25.09
2022-10-15T09:19:28.103Z,25.05
2022-10-15T09:21:28.048Z,24.97
2022-10-15T09:23:28.062Z,24.97
2022-10-15T09:25:31.255Z,24.94
2022-10-15T09:27:28.251Z,24.90
2022-10-15T09:29:28.062Z,24.95
2022-10-15T09:31:28.065Z,25.12
2022-10-15T09:33:28.068Z,25.21
2022-10-15T09:35:28.003Z,25.35
2022-10-15T09:37:28.109Z,25.40
2022-10-15T09:39:28.125Z,25.91
2022-10-15T09:41:28.098Z,25.30
2022-10-15T09:43:28.097Z,24.94
2022-10-15T09:45:28.080Z,24.79
2022-10-15T09:47:28.111Z,24.80
2022-10-15T09:49:30.284Z,25.05
2022-10-15T09:51:28.098Z,25.03
2022-10-15T09:53:28.319Z,24.89
2022-10-15T09:55:28.085Z,24.51
2022-10-15T09:57:28.008Z,24.26
2022-10-15T09:59:28.224Z,24.85
2022-10-15T10:01:28.068Z,24.61
2022-10-15T10:03:28.133Z,24.60
2022-10-15T10:05:28.082Z,24.87
2022-10-15T10:07:28.079Z,24.85
2022-10-15T10:09:28.145Z,24.95
2022-10-15T10:11:28.158Z,24.98
2022-10-15T10:13:28.136Z,25.10
2022-10-15T10:15:28.074Z,24.97
2022-10-15T10:17:28.049Z,24.95
2022-10-15T10:19:28.102Z,24.85
2022-10-15T10:21:28.070Z,24.86
2022-10-15T10:23:28.110Z,24.99
2022-10-15T10:25:28.136Z,25.01
2022-10-15T10:27:28.286Z,25.03
2022-10-15T10:29:35.102Z,24.98
2022-10-15T10:31:28.053Z,25.04
2022-10-15T10:33:28.033Z,25.00
2022-10-15T10:35:28.022Z,25.00
2022-10-15T10:37:28.221Z,25.05
2022-10-15T10:39:28.041Z,25.01
2022-10-15T10:41:28.121Z,25.01
2022-10-15T10:43:28.158Z,24.89
2022-10-15T10:45:27.980Z,25.00
2022-10-15T10:47:28.331Z,25.01
2022-10-15T10:49:28.087Z,25.00
2022-10-15T10:51:28.171Z,24.97
2022-10-15T10:53:28.173Z,24.97
2022-10-15T10:55:28.266Z,25.09
2022-10-15T10:57:28.121Z,25.08
2022-10-15T10:59:28.148Z,25.01
2022-10-15T11:01:28.057Z,25.12
2022-10-15T11:03:28.229Z,25.13
2022-10-15T11:05:28.162Z,25.14
2022-10-15T11:07:28.137Z,25.23
2022-10-15T11:09:28.207Z,25.12
2022-10-15T11:11:28.220Z,25.08
2022-10-15T11:13:30.499Z,25.11
2022-10-15T11:15:28.200Z,25.18
2022-10-15T11:17:28.230Z,25.31
2022-10-15T11:19:54.508Z,25.54
2022-10-15T11:21:28.261Z,25.56
2022-10-15T11:23:28.203Z,26.25
2022-10-15T11:25:28.022Z,26.00
2022-10-15T11:27:28.432Z,26.98
2022-10-15T11:29:28.100Z,26.10
2022-10-15T11:31:28.081Z,25.49
2022-10-15T11:33:28.206Z,25.80
2022-10-15T11:35:41.318Z,27.31
2022-10-15T11:37:28.068Z,26.22
2022-10-15T11:39:28.062Z,26.35
2022-10-15T11:41:28.530Z,27.45
2022-10-15T11:43:28.197Z,27.50
2022-10-15T11:45:28.051Z,27.41
2022-10-15T11:47:28.262Z,27.79
2022-10-15T11:49:28.267Z,25.65
2022-10-15T11:51:28.228Z,27.75
2022-10-15T11:53:28.300Z,25.65
2022-10-15T11:55:28.268Z,25.65
2022-10-15T11:57:28.066Z,25.77
2022-10-15T11:59:28.193Z,27.77
2022-10-15T12:01:28.286Z,25.65
2022-10-15T12:03:28.202Z,27.78
2022-10-15T12:05:28.207Z,27.62
2022-10-15T12:07:28.320Z,25.65
2022-10-15T12:09:28.094Z,25.60
2022-10-15T12:11:28.252Z,26.95
2022-10-15T12:13:28.255Z,25.65
2022-10-15T12:15:28.194Z,25.74
2022-10-15T12:17:28.370Z,25.86
2022-10-15T12:19:28.257Z,27.37
2022-10-15T12:21:28.318Z,25.75
2022-10-15T12:23:28.267Z,27.28
2022-10-15T12:25:28.237Z,27.88
2022-10-15T12:27:28.358Z,25.99
2022-10-15T12:29:28.267Z,25.88
2022-10-15T12:31:28.323Z,25.60
2022-10-15T12:33:28.164Z,25.60
2022-10-15T12:35:28.148Z,25.46
2022-10-15T12:37:28.311Z,25.35
2022-10-15T12:39:47.641Z,25.44
2022-10-15T12:41:28.168Z,25.40
2022-10-15T12:43:28.201Z,25.26
2022-10-15T12:45:28.286Z,25.24
2022-10-15T12:47:28.294Z,25.75
2022-10-15T12:49:28.178Z,26.22
2022-10-15T12:51:28.173Z,26.22
2022-10-15T12:53:28.192Z,25.80
2022-10-15T12:55:28.297Z,25.85
2022-10-15T12:57:28.194Z,26.52
2022-10-15T12:59:28.312Z,25.45
2022-10-15T13:01:28.445Z,25.00
2022-10-15T13:03:28.260Z,25.21
2022-10-15T13:05:28.240Z,25.37
2022-10-15T13:07:28.217Z,25.37
2022-10-15T13:09:28.305Z,25.38
2022-10-15T13:11:28.171Z,25.11
2022-10-15T13:13:28.325Z,24.52
2022-10-15T13:15:28.162Z,25.09
2022-10-15T13:17:28.339Z,24.41
2022-10-15T13:19:28.328Z,24.39
2022-10-15T13:21:28.331Z,24.39
2022-10-15T13:23:30.370Z,24.24
2022-10-15T13:25:28.323Z,24.66
2022-10-15T13:27:28.417Z,24.86
2022-10-15T13:29:28.200Z,25.38
2022-10-15T13:31:30.415Z,24.68
2022-10-15T13:33:28.311Z,25.18
2022-10-15T13:35:28.311Z,25.15
2022-10-15T13:37:28.293Z,25.14
2022-10-15T13:39:28.454Z,24.94
2022-10-15T13:41:28.300Z,24.35
2022-10-15T13:43:28.331Z,24.10
2022-10-15T13:45:28.256Z,24.66
2022-10-15T13:47:28.366Z,24.34
2022-10-15T13:49:28.980Z,24.72
2022-10-15T13:51:28.375Z,24.29
2022-10-15T13:53:28.216Z,24.35
2022-10-15T13:55:28.324Z,24.51
2022-10-15T13:57:28.362Z,24.21
2022-10-15T13:59:28.359Z,24.81
2022-10-15T14:01:28.357Z,24.42
2022-10-15T14:03:28.227Z,24.44
2022-10-15T14:05:28.342Z,24.38
2022-10-15T14:07:28.556Z,24.28
2022-10-15T14:09:28.240Z,24.41
2022-10-15T14:11:28.384Z,25.10
2022-10-15T14:13:28.320Z,25.01
2022-10-15T14:15:28.388Z,24.35
2022-10-15T14:17:28.741Z,24.79
2022-10-15T14:19:28.268Z,24.80
2022-10-15T14:21:28.366Z,24.21
2022-10-15T14:23:28.358Z,24.66
2022-10-15T14:25:28.453Z,24.68
2022-10-15T14:27:28.437Z,24.44
2022-10-15T14:29:28.422Z,24.27
2022-10-15T14:31:28.250Z,24.30
2022-10-15T14:33:28.296Z,24.09
2022-10-15T14:35:28.405Z,24.05
2022-10-15T14:37:28.328Z,24.59
2022-10-15T14:39:28.288Z,24.59
2022-10-15T14:41:28.372Z,24.59
2022-10-15T14:45:28.463Z,24.62
2022-10-15T14:47:28.922Z,24.51
2022-10-15T14:49:28.323Z,24.52
2022-10-15T14:51:28.441Z,24.62
2022-10-15T14:53:28.460Z,24.47
2022-10-15T14:55:28.370Z,24.43
2022-10-15T14:57:28.581Z,24.38
2022-10-15T14:59:28.390Z,24.37
2022-10-15T15:01:28.385Z,24.07
2022-10-15T15:03:28.540Z,24.47
2022-10-15T15:05:28.381Z,23.81
2022-10-15T15:07:28.467Z,24.51
2022-10-15T15:09:28.297Z,24.48
2022-10-15T15:11:28.294Z,24.41
2022-10-15T15:13:28.279Z,24.38
2022-10-15T15:15:28.416Z,24.35
2022-10-15T15:17:28.464Z,24.29
2022-10-15T15:19:28.608Z,24.43
2022-10-15T15:21:28.342Z,23.96
2022-10-15T15:23:28.482Z,24.07
2022-10-15T15:25:28.421Z,24.00
2022-10-15T15:27:28.453Z,23.86
2022-10-15T15:31:28.348Z,23.82
2022-10-15T15:33:28.522Z,24.38
2022-10-15T15:35:28.486Z,24.00
2022-10-15T15:37:28.489Z,23.77
2022-10-15T15:39:28.484Z,23.82
2022-10-15T15:41:28.449Z,24.37
2022-10-15T15:43:28.435Z,24.36
2022-10-15T15:45:28.521Z,24.35
2022-10-15T15:47:28.482Z,24.36
2022-10-15T15:49:28.457Z,24.11
2022-10-15T15:51:28.484Z,24.20
2022-10-15T15:53:28.470Z,24.25
2022-10-15T15:55:28.463Z,24.33
2022-10-15T15:57:28.480Z,24.14
2022-10-15T15:59:28.505Z,23.57
2022-10-15T16:01:28.534Z,23.67
2022-10-15T16:03:28.538Z,23.57
2022-10-15T16:05:28.406Z,23.66
2022-10-15T16:07:28.717Z,24.10
2022-10-15T16:09:28.502Z,23.52
2022-10-15T16:11:28.499Z,23.62
2022-10-15T16:13:28.349Z,23.77
2022-10-15T16:15:28.472Z,23.53
2022-10-15T16:17:28.574Z,23.66
2022-10-15T16:19:28.547Z,24.18
2022-10-15T16:21:28.406Z,24.14
2022-10-15T16:23:28.526Z,24.15
2022-10-15T16:25:30.060Z,24.14
2022-10-15T16:27:28.635Z,24.20
2022-10-15T16:29:28.599Z,24.10
2022-10-15T16:31:29.509Z,24.10
2022-10-15T16:33:28.447Z,24.11
2022-10-15T16:35:28.476Z,23.61
2022-10-15T16:37:28.672Z,23.52
2022-10-15T16:39:28.371Z,23.54
2022-10-15T16:41:28.429Z,23.57
2022-10-15T16:43:28.440Z,23.45
2022-10-15T16:45:28.559Z,23.44
2022-10-15T16:47:28.719Z,23.42
2022-10-15T16:49:28.520Z,23.50
2022-10-15T16:51:28.497Z,23.56
2022-10-15T16:53:28.570Z,23.45
2022-10-15T16:55:28.566Z,23.45
2022-10-15T16:57:28.571Z,23.52
2022-10-15T16:59:28.556Z,23.42
2022-10-15T17:01:28.712Z,23.57
2022-10-15T17:03:28.553Z,23.57
2022-10-15T17:05:28.572Z,23.31
2022-10-15T17:07:28.744Z,23.43
2022-10-15T17:09:28.571Z,23.34
2022-10-15T17:11:28.589Z,23.96
2022-10-15T17:13:28.557Z,24.02
2022-10-15T17:15:28.559Z,23.84
2022-10-15T17:17:28.502Z,23.93
2022-10-15T17:19:31.782Z,24.12
2022-10-15T17:21:28.624Z,23.96
2022-10-15T17:23:28.524Z,24.04
2022-10-15T17:25:28.564Z,23.53
2022-10-15T17:27:28.615Z,24.05
2022-10-15T17:29:30.882Z,23.96
2022-10-15T17:31:31.292Z,23.50
2022-10-15T17:33:28.617Z,23.91
2022-10-15T17:35:28.648Z,23.98
2022-10-15T17:37:28.708Z,23.39
2022-10-15T17:39:28.508Z,23.37
2022-10-15T17:41:28.618Z,23.40
2022-10-15T17:43:28.532Z,23.25
2022-10-15T17:45:28.619Z,23.27
2022-10-15T17:47:28.886Z,23.30
2022-10-15T17:49:28.521Z,23.43
2022-10-15T17:51:28.616Z,23.42
2022-10-15T17:53:28.515Z,23.77
2022-10-15T17:55:28.642Z,23.80
2022-10-15T17:57:28.914Z,23.18
2022-10-15T17:59:28.612Z,23.96
2022-10-15T18:03:28.611Z,23.93
2022-10-15T18:05:28.643Z,23.38
2022-10-15T18:07:28.689Z,23.25
2022-10-15T18:09:28.661Z,23.98
2022-10-15T18:11:28.602Z,23.17
2022-10-15T18:13:28.547Z,23.29
2022-10-15T18:15:28.638Z,23.33
2022-10-15T18:17:28.612Z,23.36
2022-10-15T18:19:28.664Z,23.88
2022-10-15T18:21:28.690Z,23.81
2022-10-15T18:23:28.719Z,23.38
2022-10-15T18:25:28.643Z,23.29
2022-10-15T18:27:28.847Z,23.37
2022-10-15T18:29:28.528Z,23.26
2022-10-15T18:31:28.737Z,23.34
2022-10-15T18:33:28.668Z,23.09
2022-10-15T18:35:28.668Z,23.13
2022-10-15T18:37:28.690Z,23.36
2022-10-15T18:39:28.621Z,23.93
2022-10-15T18:41:28.587Z,23.87
2022-10-15T18:43:28.674Z,23.82
2022-10-15T18:45:28.672Z,23.96
2022-10-15T18:47:28.690Z,23.93
2022-10-15T18:49:28.581Z,24.00
2022-10-15T18:51:28.703Z,23.96
2022-10-15T18:53:28.615Z,23.84
2022-10-15T18:55:28.688Z,23.81
2022-10-15T18:57:28.642Z,23.74
2022-10-15T18:59:28.698Z,23.20
2022-10-15T19:01:28.619Z,23.56
2022-10-15T19:03:28.685Z,23.66
2022-10-15T19:05:28.718Z,23.21
2022-10-15T19:07:31.639Z,23.82
2022-10-15T19:09:28.681Z,23.89
2022-10-15T19:11:28.742Z,23.63
2022-10-15T19:13:28.738Z,23.83
2022-10-15T19:15:28.730Z,23.84
2022-10-15T19:17:28.637Z,23.81
2022-10-15T19:19:28.650Z,23.81
2022-10-15T19:21:28.655Z,23.63
2022-10-15T19:23:28.705Z,23.00
2022-10-15T19:25:28.689Z,23.53
2022-10-15T19:27:28.645Z,23.70
2022-10-15T19:29:31.558Z,23.81
2022-10-15T19:31:28.631Z,23.26
2022-10-15T19:33:28.704Z,23.81
2022-10-15T19:35:28.677Z,23.77
2022-10-15T19:37:28.781Z,23.73
2022-10-15T19:39:28.684Z,23.29
2022-10-15T19:41:28.755Z,23.03
2022-10-15T19:43:28.740Z,23.15
2022-10-15T19:45:28.804Z,23.51
2022-10-15T19:47:29.040Z,23.01
2022-10-15T19:49:28.724Z,23.16
2022-10-15T19:51:28.717Z,23.49
2022-10-15T19:53:28.784Z,23.65
2022-10-15T19:55:28.766Z,23.50
2022-10-15T19:57:28.895Z,23.20
2022-10-15T19:59:28.771Z,23.64
2022-10-15T20:01:28.792Z,23.77
2022-10-15T20:03:28.786Z,23.73
2022-10-15T20:05:28.807Z,23.81
2022-10-15T20:07:28.765Z,23.70
2022-10-15T20:09:28.862Z,23.18
2022-10-15T20:11:28.671Z,23.63
2022-10-15T20:13:28.700Z,23.54
2022-10-15T20:15:28.761Z,23.62
2022-10-15T20:17:28.847Z,23.57
2022-10-15T20:19:28.845Z,23.11
2022-10-15T20:21:28.776Z,23.56
2022-10-15T20:23:28.833Z,23.38
2022-10-15T20:25:28.814Z,23.13
2022-10-15T20:27:28.815Z,23.06
2022-10-15T20:29:28.813Z,23.12
2022-10-15T20:31:28.842Z,23.11
2022-10-15T20:33:28.875Z,23.44
2022-10-15T20:35:28.805Z,23.62
2022-10-15T20:37:28.663Z,23.54
2022-10-15T20:39:28.650Z,23.53
2022-10-15T20:41:28.724Z,23.59
2022-10-15T20:43:28.809Z,23.34
2022-10-15T20:45:28.850Z,23.20
2022-10-15T20:47:28.830Z,23.11
2022-10-15T20:49:28.899Z,22.87
2022-10-15T20:51:28.988Z,23.09
2022-10-15T20:53:28.735Z,23.42
2022-10-15T20:55:28.750Z,23.16
2022-10-15T20:57:28.842Z,23.47
2022-10-15T20:59:30.406Z,23.58
2022-10-15T21:01:28.890Z,23.40
2022-10-15T21:03:29.082Z,22.64
2022-10-15T21:05:28.822Z,23.48
2022-10-15T21:07:28.888Z,23.05
2022-10-15T21:09:28.711Z,23.16
2022-10-15T21:11:28.760Z,23.05
2022-10-15T21:13:28.866Z,23.12
2022-10-15T21:15:28.837Z,23.59
2022-10-15T21:17:29.186Z,23.59
2022-10-15T21:19:28.761Z,23.03
2022-10-15T21:21:28.928Z,23.11
2022-10-15T21:23:28.800Z,23.02
2022-10-15T21:25:28.774Z,22.77
2022-10-15T21:27:28.962Z,23.48
2022-10-15T21:29:28.855Z,23.13
2022-10-15T21:31:28.788Z,23.65
2022-10-15T21:33:28.930Z,23.61
2022-10-15T21:35:28.813Z,23.58
2022-10-15T21:37:28.973Z,23.55
2022-10-15T21:39:28.858Z,23.53
2022-10-15T21:41:28.845Z,23.65
2022-10-15T21:43:28.745Z,23.66
2022-10-15T21:45:28.760Z,23.57
2022-10-15T21:47:29.112Z,23.55
2022-10-15T21:49:28.901Z,23.62
2022-10-15T21:51:28.896Z,23.56
2022-10-15T21:53:28.852Z,23.53
2022-10-15T21:55:30.536Z,23.53
2022-10-15T21:57:28.939Z,23.59
2022-10-15T21:59:28.911Z,23.51
2022-10-15T22:01:28.802Z,23.22
2022-10-15T22:03:28.892Z,23.47
2022-10-15T22:05:28.779Z,23.43
2022-10-15T22:07:28.854Z,22.92
2022-10-15T22:09:28.898Z,22.95
2022-10-15T22:11:28.912Z,22.95
2022-10-15T22:13:29.002Z,22.91
2022-10-15T22:15:28.919Z,23.04
2022-10-15T22:17:28.763Z,23.29
2022-10-15T22:19:28.878Z,23.53
2022-10-15T22:21:28.915Z,23.33
2022-10-15T22:23:28.905Z,23.48
2022-10-15T22:25:28.943Z,23.56
2022-10-15T22:27:28.865Z,23.53
2022-10-15T22:29:33.051Z,23.54
2022-10-15T22:31:28.936Z,23.53
2022-10-15T22:33:28.844Z,23.56
2022-10-15T22:35:28.820Z,23.57
2022-10-15T22:37:28.883Z,23.56
2022-10-15T22:39:28.904Z,23.52
2022-10-15T22:41:28.999Z,23.49
2022-10-15T22:43:28.875Z,23.50
2022-10-15T22:45:28.905Z,23.52
2022-10-15T22:47:28.947Z,23.50
2022-10-15T22:49:28.928Z,23.48
2022-10-15T22:51:28.815Z,23.50
2022-10-15T22:53:28.851Z,23.43
2022-10-15T22:55:28.963Z,23.43
2022-10-15T22:57:28.967Z,23.50
2022-10-15T22:59:28.818Z,23.39
2022-10-15T23:01:29.090Z,22.99
2022-10-15T23:03:28.990Z,23.52
2022-10-15T23:05:28.978Z,23.53
2022-10-15T23:07:28.916Z,23.47
2022-10-15T23:09:28.964Z,23.48
2022-10-15T23:11:28.948Z,23.51
2022-10-15T23:13:28.813Z,23.43
2022-10-15T23:15:29.028Z,23.39
2022-10-15T23:17:28.871Z,23.37
2022-10-15T23:19:28.975Z,23.25
2022-10-15T23:21:28.866Z,23.22
2022-10-15T23:23:28.973Z,22.85
2022-10-15T23:25:29.051Z,23.34
2022-10-15T23:27:29.153Z,23.30
2022-10-15T23:29:29.057Z,23.01
2022-10-15T23:31:28.965Z,23.37
2022-10-15T23:33:28.974Z,23.29
2022-10-15T23:35:29.110Z,22.68
2022-10-15T23:37:28.985Z,22.94
2022-10-15T23:39:28.920Z,22.87
2022-10-15T23:41:29.001Z,23.36
2022-10-15T23:43:29.002Z,23.25
2022-10-15T23:45:29.010Z,23.22
2022-10-15T23:47:28.993Z,23.20
2022-10-15T23:49:28.974Z,23.16
2022-10-15T23:51:28.911Z,23.07
2022-10-15T23:53:29.037Z,22.96
2022-10-15T23:55:29.004Z,23.00
2022-10-15T23:57:29.023Z,23.05
2022-10-15T23:59:28.947Z,22.90
